Time;durP1;ratioP1;P1;durP2;ratioP2;P2;SDS_P1;SDS_P2;PMS_P1;PMS_P2;Temp;Humidity;BMP_temperature;BMP_pressure;BME280_temperature;BME280_humidity;BME280_pressure;Samples;Min_cycle;Max_cycle;Signal;HPM_P1;HPM_P2
2022/12/14 00:00:53;;;;;;;49.35;22.52;;;-2.40;99.90;;;;;;5060129;28;20440;-61
2022/12/14 00:03:19;;;;;;;47.78;23.17;;;-2.40;99.90;;;;;;5071891;28;20099;-61
2022/12/14 00:05:45;;;;;;;50.42;23.20;;;-2.40;99.90;;;;;;5069733;28;20033;-61
2022/12/14 00:08:12;;;;;;;44.60;23.10;;;-2.40;99.90;;;;;;5071988;28;20045;-61
2022/12/14 00:10:39;;;;;;;43.67;22.52;;;-2.50;99.90;;;;;;5070166;28;20524;-61
2022/12/14 00:13:06;;;;;;;49.08;23.25;;;-2.50;99.90;;;;;;5070026;28;20063;-61
2022/12/14 00:15:32;;;;;;;46.85;23.02;;;-2.50;99.90;;;;;;5071904;28;20044;-60
2022/12/14 00:17:58;;;;;;;48.53;24.58;;;-2.50;99.90;;;;;;5067779;28;20407;-60
2022/12/14 00:20:24;;;;;;;54.55;24.05;;;-2.50;99.90;;;;;;5068957;28;20037;-60
2022/12/14 00:22:50;;;;;;;46.72;24.33;;;-2.50;99.90;;;;;;5064098;28;20513;-60
2022/12/14 00:25:15;;;;;;;51.58;23.70;;;-2.60;99.90;;;;;;5071435;28;20082;-61
2022/12/14 00:27:43;;;;;;;50.33;23.20;;;-2.50;99.90;;;;;;5070111;28;20051;-61
2022/12/14 00:30:10;;;;;;;48.58;23.70;;;-2.60;99.90;;;;;;5066360;28;20029;-61
2022/12/14 00:32:36;;;;;;;48.85;23.65;;;-2.60;99.90;;;;;;5070257;28;20085;-61
2022/12/14 00:35:01;;;;;;;50.03;23.50;;;-2.60;99.90;;;;;;5071456;28;20131;-61
2022/12/14 00:37:27;;;;;;;48.90;23.95;;;-2.60;99.90;;;;;;5070780;28;20033;-61
2022/12/14 00:39:52;;;;;;;49.33;24.17;;;-2.60;99.90;;;;;;5071823;28;20383;-60
2022/12/14 00:42:18;;;;;;;53.15;24.85;;;-2.60;99.90;;;;;;5069901;28;20066;-61
2022/12/14 00:44:43;;;;;;;48.78;23.35;;;-2.50;99.90;;;;;;5070588;28;20040;-61
2022/12/14 00:47:09;;;;;;;52.25;24.98;;;-2.60;99.90;;;;;;5070852;28;20029;-61
2022/12/14 00:49:35;;;;;;;54.22;26.73;;;-2.60;99.90;;;;;;5071476;28;20098;-59
2022/12/14 00:52:00;;;;;;;52.70;26.92;;;-2.60;99.90;;;;;;5070703;28;20456;-61
2022/12/14 00:54:26;;;;;;;54.00;25.67;;;-2.60;99.90;;;;;;5068844;28;20123;-61
2022/12/14 00:56:51;;;;;;;50.63;24.63;;;-2.60;99.90;;;;;;5070574;28;20478;-61
2022/12/14 00:59:17;;;;;;;49.40;24.10;;;-2.60;99.90;;;;;;5070944;28;20482;-61
2022/12/14 01:01:43;;;;;;;50.20;23.38;;;-2.60;99.90;;;;;;5069724;28;20041;-60
2022/12/14 01:04:18;;;;;;;50.95;23.25;;;-2.60;99.90;;;;;;5070595;28;20037;-60
2022/12/14 01:06:49;;;;;;;47.75;24.42;;;-2.60;99.90;;;;;;5069402;28;20405;-61
2022/12/14 01:09:16;;;;;;;46.58;23.15;;;-2.70;99.90;;;;;;5066665;28;20047;-62
2022/12/14 01:11:42;;;;;;;50.58;23.45;;;-2.70;99.90;;;;;;5071406;28;20040;-61
2022/12/14 01:14:09;;;;;;;49.47;22.90;;;-2.70;99.90;;;;;;5069268;28;20052;-61
2022/12/14 01:16:34;;;;;;;48.13;23.42;;;-2.70;99.90;;;;;;5071041;28;20037;-61
2022/12/14 01:19:01;;;;;;;52.15;23.60;;;-2.70;99.90;;;;;;5067565;28;20120;-61
2022/12/14 01:21:27;;;;;;;47.33;22.83;;;-2.70;99.90;;;;;;5066082;28;20029;-61
2022/12/14 01:23:55;;;;;;;47.47;23.30;;;-2.70;99.90;;;;;;5066687;28;20173;-61
2022/12/14 01:26:21;;;;;;;49.22;23.98;;;-2.70;99.90;;;;;;5067016;28;20394;-61
2022/12/14 01:28:54;;;;;;;53.38;24.30;;;-2.80;99.90;;;;;;5064974;28;20486;-61
2022/12/14 01:31:23;;;;;;;49.70;23.17;;;-2.80;99.90;;;;;;5068630;28;20067;-61
2022/12/14 01:33:49;;;;;;;44.45;21.73;;;-2.80;99.90;;;;;;5067200;28;20032;-61
2022/12/14 01:36:17;;;;;;;48.08;22.23;;;-2.80;99.90;;;;;;5068701;28;20051;-60
2022/12/14 01:38:43;;;;;;;51.97;24.83;;;-2.80;99.90;;;;;;5066650;28;20456;-61
2022/12/14 01:41:22;;;;;;;45.75;22.52;;;-2.80;99.90;;;;;;5070293;28;20036;-62
2022/12/14 01:43:52;;;;;;;43.13;22.33;;;-2.80;99.90;;;;;;5067349;28;20128;-61
2022/12/14 01:46:40;;;;;;;43.72;22.05;;;-2.80;99.90;;;;;;5069868;28;20483;-61
2022/12/14 01:49:18;;;;;;;46.42;22.38;;;-2.90;99.90;;;;;;5070318;28;20044;-61
2022/12/14 01:51:51;;;;;;;43.22;21.52;;;-2.90;99.90;;;;;;5061065;28;20037;-60
2022/12/14 01:54:18;;;;;;;45.20;21.55;;;-2.90;99.90;;;;;;5066139;28;20056;-60
2022/12/14 01:56:44;;;;;;;44.08;21.25;;;-2.90;99.90;;;;;;5067984;28;20028;-60
2022/12/14 01:59:16;;;;;;;47.20;22.70;;;-2.90;99.90;;;;;;5069187;28;20047;-61
2022/12/14 02:01:42;;;;;;;45.50;20.83;;;-2.90;99.90;;;;;;5068527;28;20051;-61
2022/12/14 02:04:09;;;;;;;43.53;21.30;;;-2.90;99.90;;;;;;5063486;28;20399;-61
2022/12/14 02:06:37;;;;;;;43.63;20.20;;;-2.90;99.90;;;;;;5067417;28;20556;-60
2022/12/14 02:09:11;;;;;;;47.92;21.15;;;-3.00;99.90;;;;;;5065265;28;20041;-61
2022/12/14 02:12:01;;;;;;;46.05;21.40;;;-3.00;99.90;;;;;;5065337;28;20507;-61
2022/12/14 02:14:26;;;;;;;41.35;20.33;;;-3.00;99.90;;;;;;5066553;28;20028;-61
2022/12/14 02:16:54;;;;;;;43.28;21.00;;;-3.00;99.90;;;;;;5069800;28;20037;-61
2022/12/14 02:19:20;;;;;;;46.13;21.15;;;-3.00;99.90;;;;;;5067253;28;20405;-61
2022/12/14 02:22:10;;;;;;;41.22;20.45;;;-3.10;99.90;;;;;;5069412;28;20120;-61
2022/12/14 02:24:57;;;;;;;43.90;20.77;;;-3.10;99.90;;;;;;5068304;28;20047;-60
2022/12/14 02:27:41;;;;;;;45.03;20.85;;;-3.10;99.90;;;;;;5067259;28;20044;-61
2022/12/14 02:30:09;;;;;;;40.85;20.20;;;-3.10;99.90;;;;;;5067683;28;20048;-61
2022/12/14 02:33:03;;;;;;;41.67;20.83;;;-3.10;99.90;;;;;;5068885;28;20442;-61
2022/12/14 02:35:48;;;;;;;44.65;20.65;;;-3.10;99.90;;;;;;5067997;28;20047;-61
2022/12/14 02:38:27;;;;;;;45.92;20.88;;;-3.20;99.90;;;;;;5060278;28;20051;-61
2022/12/14 02:41:18;;;;;;;41.63;19.73;;;-3.20;99.90;;;;;;5067417;28;20047;-63
2022/12/14 02:44:16;;;;;;;46.42;20.02;;;-3.20;99.90;;;;;;5059840;28;20039;-59
2022/12/14 02:46:45;;;;;;;42.10;20.15;;;-3.30;99.90;;;;;;5043259;28;20053;-60
2022/12/14 02:49:24;;;;;;;42.05;19.35;;;-3.30;99.90;;;;;;5061576;28;20049;-61
2022/12/14 02:52:05;;;;;;;47.83;20.95;;;-3.30;99.90;;;;;;5069682;28;20123;-61
2022/12/14 02:54:56;;;;;;;42.35;19.52;;;-3.30;99.90;;;;;;5067804;28;20235;-61
2022/12/14 02:57:27;;;;;;;44.72;20.63;;;-3.30;99.90;;;;;;5067452;28;20041;-61
2022/12/14 02:59:56;;;;;;;41.72;19.60;;;-3.40;99.90;;;;;;5067002;28;20043;-61
2022/12/14 03:02:23;;;;;;;47.40;19.23;;;-3.40;99.90;;;;;;5062520;28;20032;-61
2022/12/14 03:04:49;;;;;;;44.65;20.95;;;-3.40;99.90;;;;;;5068526;28;20036;-62
2022/12/14 03:07:47;;;;;;;41.38;19.40;;;-3.40;99.90;;;;;;5065607;28;20124;-61
2022/12/14 03:10:38;;;;;;;43.50;19.02;;;-3.40;99.90;;;;;;5069176;28;20445;-62
2022/12/14 03:13:27;;;;;;;39.67;19.48;;;-3.40;99.90;;;;;;5061887;28;20048;-61
2022/12/14 03:16:12;;;;;;;37.15;17.92;;;-3.50;99.90;;;;;;5065713;28;20495;-61
2022/12/14 03:18:44;;;;;;;43.50;19.98;;;-3.50;99.90;;;;;;5061803;28;20139;-62
2022/12/14 03:21:14;;;;;;;43.25;18.88;;;-3.50;99.90;;;;;;5068254;28;20060;-62
2022/12/14 03:23:42;;;;;;;42.55;19.05;;;-3.50;99.90;;;;;;5068023;28;20078;-61
2022/12/14 03:26:14;;;;;;;41.22;20.15;;;-3.50;99.90;;;;;;5070206;28;20033;-61
2022/12/14 03:28:49;;;;;;;38.10;18.75;;;-3.50;99.90;;;;;;5072336;28;20487;-61
2022/12/14 03:31:37;;;;;;;42.00;18.27;;;-3.50;99.90;;;;;;5069462;28;20087;-61
2022/12/14 03:34:07;;;;;;;38.78;17.70;;;-3.60;99.90;;;;;;5057838;28;20072;-61
2022/12/14 03:36:47;;;;;;;39.50;19.17;;;-3.60;99.90;;;;;;5072686;28;20040;-62
2022/12/14 03:39:28;;;;;;;39.00;17.98;;;-3.60;99.90;;;;;;5064205;28;20044;-62
2022/12/14 03:41:53;;;;;;;41.92;18.10;;;-3.60;99.90;;;;;;5071166;28;20056;-61
2022/12/14 03:44:40;;;;;;;38.17;18.50;;;-2.70;99.90;;;;;;5070490;28;20072;-61
2022/12/14 03:47:27;;;;;;;39.38;17.60;;;-3.60;99.90;;;;;;5072020;28;20033;-61
2022/12/14 03:50:13;;;;;;;39.42;18.50;;;-3.60;99.90;;;;;;5072471;28;20067;-61
2022/12/14 03:52:41;;;;;;;36.55;17.80;;;-3.60;99.90;;;;;;5066409;28;20044;-61
2022/12/14 03:55:10;;;;;;;35.67;16.73;;;-3.60;99.90;;;;;;5070838;28;20046;-61
2022/12/14 03:57:59;;;;;;;34.85;17.33;;;-3.60;99.90;;;;;;5070195;28;20039;-61
2022/12/14 04:00:26;;;;;;;38.72;17.58;;;-3.70;99.90;;;;;;5067593;28;20037;-61
2022/12/14 04:03:00;;;;;;;37.60;17.70;;;-3.70;99.90;;;;;;5072257;28;20033;-61
2022/12/14 04:05:47;;;;;;;37.42;17.48;;;-3.70;99.90;;;;;;5071798;28;20323;-62
2022/12/14 04:08:40;;;;;;;37.13;17.10;;;-3.70;99.90;;;;;;5067506;28;20051;-61
2022/12/14 04:20:18;;;;;;;38.15;18.48;;;-3.70;99.90;;;;;;5065828;28;20040;-61
2022/12/14 04:22:50;;;;;;;39.50;18.35;;;-3.60;99.90;;;;;;5035640;28;20045;-61
2022/12/14 04:31:29;;;;;;;41.03;18.02;;;-3.60;99.90;;;;;;5065231;28;20052;-61
2022/12/14 04:33:57;;;;;;;37.67;17.70;;;-3.60;99.90;;;;;;5068057;28;20063;-60
2022/12/14 04:36:38;;;;;;;38.25;17.75;;;-3.70;99.90;;;;;;5069667;28;20060;-61
2022/12/14 04:39:10;;;;;;;38.85;18.25;;;-3.70;99.90;;;;;;5064215;28;20135;-61
2022/12/14 04:41:40;;;;;;;38.70;18.48;;;-3.70;99.90;;;;;;5066022;28;20052;-61
2022/12/14 04:44:18;;;;;;;40.78;18.15;;;-3.70;99.90;;;;;;5068789;28;20383;-61
2022/12/14 04:46:46;;;;;;;37.60;17.50;;;-3.70;99.90;;;;;;5065805;28;20391;-61
2022/12/14 04:49:11;;;;;;;42.22;18.33;;;-3.80;99.90;;;;;;5063505;28;20072;-61
2022/12/14 04:52:27;;;;;;;40.78;17.95;;;-3.80;99.90;;;;;;5071408;28;20078;-62
2022/12/14 04:55:25;;;;;;;37.97;17.48;;;-3.80;99.90;;;;;;5034460;28;20044;-62
2022/12/14 04:58:21;;;;;;;39.50;17.25;;;-3.80;99.90;;;;;;5063657;28;20431;-61
2022/12/14 05:01:00;;;;;;;38.67;16.90;;;-3.90;99.90;;;;;;5067740;28;20033;-62
2022/12/14 05:03:38;;;;;;;37.17;17.58;;;-3.90;99.90;;;;;;5058646;28;20040;-60
2022/12/14 05:06:22;;;;;;;39.35;18.13;;;-3.90;99.90;;;;;;5068733;28;20880;-61
2022/12/14 05:09:11;;;;;;;42.45;18.20;;;-3.90;99.90;;;;;;5049091;28;20051;-61
2022/12/14 05:11:39;;;;;;;37.50;17.35;;;-4.00;99.90;;;;;;5066640;28;20036;-61
2022/12/14 05:14:15;;;;;;;37.80;18.27;;;-3.90;99.90;;;;;;5061779;28;20060;-61
2022/12/14 05:16:41;;;;;;;42.35;19.17;;;-3.90;99.90;;;;;;5062889;28;20039;-61
2022/12/14 05:19:09;;;;;;;40.10;17.20;;;-3.90;99.90;;;;;;5069950;28;20036;-61
2022/12/14 05:21:48;;;;;;;37.60;16.88;;;-3.90;99.90;;;;;;5070913;28;20032;-61
2022/12/14 05:24:15;;;;;;;37.90;17.35;;;-3.90;99.90;;;;;;5061679;28;20036;-60
2022/12/14 05:26:41;;;;;;;41.05;17.48;;;-4.00;99.90;;;;;;5066708;28;20025;-61
2022/12/14 05:29:07;;;;;;;42.13;18.73;;;-3.90;99.90;;;;;;5070106;28;20043;-60
2022/12/14 05:31:33;;;;;;;41.72;18.20;;;-4.00;99.90;;;;;;5067607;28;20133;-60
2022/12/14 05:33:59;;;;;;;37.00;17.05;;;-4.00;99.90;;;;;;5062435;28;20041;-61
2022/12/14 05:36:24;;;;;;;39.60;17.85;;;-4.10;99.90;;;;;;5068684;28;20079;-61
2022/12/14 05:38:50;;;;;;;39.35;17.75;;;-4.00;99.90;;;;;;5064992;28;20065;-61
2022/12/14 05:41:16;;;;;;;34.80;15.55;;;-4.10;99.90;;;;;;5069347;28;20102;-61
2022/12/14 05:43:41;;;;;;;40.55;18.63;;;-4.10;99.90;;;;;;5070014;28;20529;-60
2022/12/14 05:46:08;;;;;;;40.28;17.55;;;-4.10;99.90;;;;;;5068112;28;20032;-61
2022/12/14 05:48:34;;;;;;;44.55;18.85;;;-4.10;99.90;;;;;;5067595;28;20037;-61
2022/12/14 05:51:08;;;;;;;38.00;16.65;;;-4.10;99.90;;;;;;5062902;28;20064;-61
2022/12/14 05:53:37;;;;;;;37.00;17.02;;;-4.10;99.90;;;;;;5062966;28;20406;-61
2022/12/14 05:56:05;;;;;;;40.42;17.50;;;-4.20;99.90;;;;;;5065481;28;20042;-60
2022/12/14 05:58:31;;;;;;;38.28;16.50;;;-4.10;99.90;;;;;;5069901;28;20040;-60
2022/12/14 06:01:06;;;;;;;34.75;16.38;;;-4.20;99.90;;;;;;5055539;28;20055;-61
2022/12/14 06:03:31;;;;;;;38.42;15.75;;;-4.20;99.90;;;;;;5064150;28;20045;-60
2022/12/14 06:06:05;;;;;;;37.00;16.33;;;-4.30;99.90;;;;;;5060814;28;20112;-59
2022/12/14 06:08:33;;;;;;;39.58;17.52;;;-4.40;99.90;;;;;;5052040;28;20045;-60
2022/12/14 06:11:07;;;;;;;39.05;16.48;;;-4.40;99.90;;;;;;5058435;28;20487;-60
2022/12/14 06:13:36;;;;;;;43.33;17.10;;;-4.50;99.90;;;;;;5052374;28;20044;-60
2022/12/14 06:16:14;;;;;;;33.42;15.52;;;-4.50;99.90;;;;;;5056154;28;20037;-61
2022/12/14 06:18:44;;;;;;;42.08;18.05;;;-4.50;99.90;;;;;;5059033;28;20398;-60
2022/12/14 06:21:12;;;;;;;38.95;16.13;;;-4.50;99.90;;;;;;5055091;28;20040;-61
2022/12/14 06:23:38;;;;;;;39.42;17.27;;;-4.50;99.90;;;;;;5056459;28;20021;-61
2022/12/14 06:26:04;;;;;;;39.10;16.52;;;-4.50;99.90;;;;;;5068718;28;20043;-60
2022/12/14 06:28:29;;;;;;;38.05;17.13;;;-4.50;99.90;;;;;;5062282;28;20498;-60
2022/12/14 06:30:55;;;;;;;36.53;16.90;;;-4.50;99.90;;;;;;5060254;28;20071;-59
2022/12/14 06:33:20;;;;;;;44.40;17.30;;;-4.50;99.90;;;;;;5059168;28;20234;-60
2022/12/14 06:35:46;;;;;;;38.00;16.95;;;-4.50;99.90;;;;;;5063862;28;20033;-59
2022/12/14 06:38:14;;;;;;;35.67;17.05;;;-4.50;99.90;;;;;;5060919;28;20505;-60
2022/12/14 06:40:40;;;;;;;42.35;16.42;;;-4.60;99.90;;;;;;5064906;28;20048;-61
2022/12/14 06:43:05;;;;;;;38.55;17.20;;;-4.60;99.90;;;;;;5055974;28;20028;-60
2022/12/14 06:45:31;;;;;;;39.50;17.17;;;-4.60;99.90;;;;;;5063026;28;20375;-60
2022/12/14 06:47:57;;;;;;;41.75;17.33;;;-4.60;99.90;;;;;;5060851;28;20087;-60
2022/12/14 06:50:24;;;;;;;37.33;17.67;;;-4.60;99.90;;;;;;5058921;28;20064;-61
2022/12/14 06:52:50;;;;;;;44.50;17.02;;;-4.60;99.90;;;;;;5058456;28;20033;-60
2022/12/14 06:55:16;;;;;;;40.65;17.77;;;-4.10;99.90;;;;;;5064431;28;20414;-60
2022/12/14 06:57:42;;;;;;;39.50;16.45;;;-4.60;99.90;;;;;;5061809;28;20475;-60
2022/12/14 07:00:11;;;;;;;44.20;17.58;;;-4.60;99.90;;;;;;5067611;28;20036;-60
2022/12/14 07:02:37;;;;;;;36.08;16.45;;;-4.60;99.90;;;;;;5065897;28;20036;-59
2022/12/14 07:05:04;;;;;;;47.47;18.30;;;-4.60;99.90;;;;;;5061827;28;20118;-60
2022/12/14 07:07:33;;;;;;;37.33;16.60;;;-4.60;99.90;;;;;;5060056;28;20044;-60
2022/12/14 07:09:59;;;;;;;40.63;17.38;;;-4.60;99.90;;;;;;5059179;28;20040;-61
2022/12/14 07:12:26;;;;;;;38.95;16.42;;;-4.60;99.90;;;;;;5057532;28;20614;-60
2022/12/14 07:14:52;;;;;;;40.00;17.35;;;-4.60;99.90;;;;;;5057675;28;20410;-61
2022/12/14 07:17:18;;;;;;;40.00;17.30;;;-4.60;99.90;;;;;;5056215;28;20033;-61
2022/12/14 07:19:44;;;;;;;36.38;16.25;;;-4.60;99.90;;;;;;5059050;28;20050;-61
2022/12/14 07:22:10;;;;;;;40.70;16.48;;;-4.60;99.90;;;;;;5061834;28;20430;-61
2022/12/14 07:24:35;;;;;;;42.83;17.00;;;-4.70;99.90;;;;;;5059550;28;20119;-60
2022/12/14 07:27:01;;;;;;;36.53;16.38;;;-4.70;99.90;;;;;;5065363;28;20141;-59
2022/12/14 07:29:26;;;;;;;40.58;17.13;;;-4.80;99.90;;;;;;5062140;28;20040;-61
2022/12/14 07:31:52;;;;;;;38.25;16.02;;;-4.80;99.90;;;;;;5059700;28;20483;-61
2022/12/14 07:34:17;;;;;;;38.80;16.83;;;-4.90;99.90;;;;;;5059833;28;20032;-61
2022/12/14 07:36:43;;;;;;;35.92;16.10;;;-4.90;99.90;;;;;;5065915;28;20039;-61
2022/12/14 07:39:13;;;;;;;38.38;16.05;;;-5.00;99.90;;;;;;5071136;28;20049;-61
2022/12/14 07:41:40;;;;;;;41.90;16.67;;;-5.00;99.90;;;;;;5071078;28;20048;-61
2022/12/14 07:44:07;;;;;;;38.92;15.60;;;-5.10;99.90;;;;;;5070783;28;20036;-61
2022/12/14 07:46:32;;;;;;;40.63;17.35;;;-5.10;99.90;;;;;;5067019;28;20028;-61
2022/12/14 07:48:59;;;;;;;37.13;15.10;;;-5.10;99.90;;;;;;5066303;28;20097;-61
2022/12/14 07:51:34;;;;;;;38.72;16.92;;;-5.10;99.90;;;;;;5061998;28;20398;-61
2022/12/14 07:54:01;;;;;;;35.33;15.95;;;-5.10;99.90;;;;;;5073843;28;20101;-61
2022/12/14 07:56:30;;;;;;;36.35;16.05;;;-5.10;99.90;;;;;;5061170;28;20123;-61
2022/12/14 07:58:57;;;;;;;40.22;16.30;;;-5.20;99.90;;;;;;5060295;28;20120;-61
2022/12/14 08:01:28;;;;;;;38.22;15.93;;;-5.20;99.90;;;;;;5067477;28;20503;-61
2022/12/14 08:03:57;;;;;;;39.08;16.75;;;-5.20;99.90;;;;;;5070227;28;20441;-61
2022/12/14 08:06:25;;;;;;;37.97;16.50;;;-5.20;99.90;;;;;;5070894;28;20032;-61
2022/12/14 08:08:51;;;;;;;36.95;16.00;;;-4.90;99.90;;;;;;5072319;28;20067;-61
2022/12/14 08:11:17;;;;;;;36.85;15.77;;;-5.20;99.90;;;;;;5071075;28;20036;-61
2022/12/14 08:13:43;;;;;;;39.15;16.63;;;-5.20;99.90;;;;;;5069768;28;20147;-61
2022/12/14 08:16:12;;;;;;;44.40;15.88;;;-5.20;99.90;;;;;;5067051;28;20439;-61
2022/12/14 08:18:38;;;;;;;39.55;16.55;;;-5.20;99.90;;;;;;5067044;28;20075;-61
2022/12/14 08:21:06;;;;;;;46.42;16.77;;;-5.30;99.90;;;;;;5070166;28;20064;-61
2022/12/14 08:23:32;;;;;;;45.95;20.40;;;-5.30;99.90;;;;;;5070972;28;20119;-60
2022/12/14 08:25:59;;;;;;;44.47;19.38;;;-5.30;99.90;;;;;;5066144;28;20025;-62
2022/12/14 08:28:26;;;;;;;42.55;17.48;;;-5.30;99.90;;;;;;5063212;28;20441;-61
2022/12/14 08:30:52;;;;;;;43.10;18.27;;;-5.30;99.90;;;;;;5070558;28;20078;-61
2022/12/14 08:33:18;;;;;;;37.97;15.75;;;-5.30;99.90;;;;;;5069597;28;20044;-60
2022/12/14 08:35:44;;;;;;;38.38;16.50;;;-5.30;99.90;;;;;;5071370;28;20036;-61
2022/12/14 08:38:10;;;;;;;39.85;16.48;;;-5.30;99.90;;;;;;5071458;28;20040;-62
2022/12/14 08:40:36;;;;;;;44.15;17.13;;;-5.20;99.90;;;;;;5062173;28;20047;-60
2022/12/14 08:43:03;;;;;;;44.95;16.67;;;-5.20;99.90;;;;;;5067500;28;20040;-61
2022/12/14 08:45:29;;;;;;;39.38;16.38;;;-5.20;99.90;;;;;;5059369;28;20106;-61
2022/12/14 08:47:58;;;;;;;37.92;16.60;;;-5.20;99.90;;;;;;5067274;28;20097;-61
2022/12/14 08:50:25;;;;;;;41.10;17.52;;;-5.10;99.90;;;;;;5065772;28;20499;-60
2022/12/14 08:52:50;;;;;;;40.55;17.00;;;-5.10;99.90;;;;;;5070436;28;20052;-61
2022/12/14 08:55:16;;;;;;;44.15;17.20;;;-5.10;99.90;;;;;;5064919;28;20428;-61
2022/12/14 08:57:42;;;;;;;40.28;16.05;;;-5.10;99.90;;;;;;5060872;28;20090;-60
2022/12/14 09:00:08;;;;;;;35.78;16.42;;;-5.00;99.90;;;;;;5068922;28;20044;-60
2022/12/14 09:02:34;;;;;;;38.10;16.90;;;-5.00;99.90;;;;;;5057002;28;20035;-61
2022/12/14 09:05:00;;;;;;;39.47;16.45;;;-5.00;99.90;;;;;;5064358;28;20064;-61
2022/12/14 09:07:27;;;;;;;41.42;16.38;;;-4.90;99.90;;;;;;5063126;28;20025;-61
2022/12/14 09:09:53;;;;;;;38.88;17.25;;;-4.90;99.90;;;;;;5062491;28;20435;-61
2022/12/14 09:12:19;;;;;;;40.67;16.60;;;-4.90;99.90;;;;;;5063807;28;20110;-61
2022/12/14 09:14:48;;;;;;;38.90;15.73;;;-4.90;99.90;;;;;;5068626;28;20220;-61
2022/12/14 09:17:17;;;;;;;40.20;16.40;;;-4.80;99.90;;;;;;5064951;28;20044;-61
2022/12/14 09:19:43;;;;;;;40.13;16.75;;;-4.80;99.90;;;;;;5063988;28;20228;-61
2022/12/14 09:22:09;;;;;;;40.28;17.13;;;-4.80;99.90;;;;;;5062798;28;20094;-61
2022/12/14 09:24:35;;;;;;;38.35;16.90;;;-4.80;99.90;;;;;;5064549;28;20459;-60
2022/12/14 09:27:02;;;;;;;38.25;16.42;;;-4.70;99.90;;;;;;5063347;28;20052;-61
2022/12/14 09:29:28;;;;;;;42.45;17.10;;;-4.70;99.90;;;;;;5065328;28;20079;-61
2022/12/14 09:31:54;;;;;;;42.63;16.70;;;-4.60;99.90;;;;;;5064601;28;20430;-61
2022/12/14 09:34:23;;;;;;;39.88;17.55;;;-4.60;99.90;;;;;;5065027;28;20090;-60
2022/12/14 09:36:49;;;;;;;40.92;17.45;;;-4.60;99.90;;;;;;5069433;28;20043;-61
2022/12/14 09:39:14;;;;;;;36.38;16.67;;;-4.60;99.90;;;;;;5058896;28;20041;-61
2022/12/14 09:41:58;;;;;;;42.33;16.75;;;-4.60;99.90;;;;;;5061225;28;20036;-61
2022/12/14 09:44:26;;;;;;;38.03;17.42;;;-4.50;99.90;;;;;;5060349;28;20509;-61
2022/12/14 09:47:16;;;;;;;42.25;16.98;;;-4.50;99.90;;;;;;5065754;28;20040;-61
2022/12/14 09:49:54;;;;;;;39.13;16.65;;;-4.50;99.90;;;;;;5070200;28;20080;-62
2022/12/14 09:52:33;;;;;;;39.40;16.52;;;-4.50;99.90;;;;;;5064525;28;20410;-61
2022/12/14 09:55:02;;;;;;;36.85;16.65;;;-4.50;99.90;;;;;;5068564;28;20046;-62
2022/12/14 09:57:40;;;;;;;39.78;16.98;;;-4.40;99.90;;;;;;5062532;28;20040;-60
2022/12/14 10:00:18;;;;;;;42.22;17.48;;;-4.30;99.90;;;;;;5058043;28;20440;-62
2022/12/14 10:02:55;;;;;;;36.95;16.67;;;-4.30;99.90;;;;;;5062363;28;20039;-61
2022/12/14 10:05:50;;;;;;;39.28;16.83;;;-4.30;99.90;;;;;;5061321;28;20624;-61
2022/12/14 10:08:23;;;;;;;40.20;17.80;;;-4.20;99.90;;;;;;5066627;28;20492;-61
2022/12/14 10:11:10;;;;;;;40.05;16.45;;;-4.20;99.90;;;;;;5069571;28;20040;-62
2022/12/14 10:14:04;;;;;;;37.92;16.65;;;-4.20;99.90;;;;;;5064447;28;20406;-61
2022/12/14 10:17:15;;;;;;;48.88;17.65;;;-4.20;99.90;;;;;;5066302;28;20492;-61
2022/12/14 10:19:44;;;;;;;35.03;15.38;;;-4.10;99.90;;;;;;5020213;28;20414;-61
2022/12/14 10:22:16;;;;;;;39.72;17.33;;;-4.10;99.90;;;;;;5057520;28;20491;-60
2022/12/14 10:24:49;;;;;;;51.63;18.10;;;-4.10;99.90;;;;;;5065836;28;20040;-60
2022/12/14 10:27:19;;;;;;;;;;;-4.00;99.90;;;;;;5068760;28;20124;-60
2022/12/14 10:30:02;;;;;;;43.20;17.08;;;-4.00;99.90;;;;;;5065003;28;20350;-62
2022/12/14 10:32:32;;;;;;;;;;;-4.00;99.90;;;;;;5070131;28;20120;-60
2022/12/14 10:35:13;;;;;;;48.40;17.85;;;-4.00;99.90;;;;;;5070130;28;19916;-61
2022/12/14 10:37:52;;;;;;;45.67;17.95;;;-3.90;99.90;;;;;;5071100;28;20043;-60
2022/12/14 10:40:31;;;;;;;44.40;18.25;;;-3.90;99.90;;;;;;5071417;28;20032;-62
2022/12/14 10:43:15;;;;;;;40.15;17.90;;;-3.90;99.90;;;;;;5072333;28;20105;-61
2022/12/14 10:45:52;;;;;;;39.92;18.27;;;-3.90;99.90;;;;;;5072807;28;20123;-60
2022/12/14 10:48:20;;;;;;;45.55;18.13;;;-3.80;99.90;;;;;;5066396;28;20056;-61
2022/12/14 10:50:55;;;;;;;38.35;17.48;;;-3.80;99.90;;;;;;5067422;28;20044;-62
2022/12/14 10:53:29;;;;;;;39.13;16.50;;;-3.80;99.90;;;;;;5073524;28;20534;-60
2022/12/14 10:56:00;;;;;;;39.28;17.73;;;-3.70;99.90;;;;;;5061828;28;20036;-61
2022/12/14 10:58:26;;;;;;;37.65;17.08;;;-3.70;99.90;;;;;;5073056;28;20098;-63
2022/12/14 11:00:53;;;;;;;34.05;16.58;;;-3.60;99.90;;;;;;5066442;28;20025;-60
2022/12/14 11:03:19;;;;;;;36.55;15.95;;;-3.60;99.90;;;;;;5072995;28;20445;-61
2022/12/14 11:06:00;;;;;;;33.15;15.70;;;-3.60;99.90;;;;;;5068048;28;20032;-61
2022/12/14 11:08:45;;;;;;;35.65;17.33;;;-3.50;99.90;;;;;;5067970;28;20048;-61
2022/12/14 11:11:17;;;;;;;32.40;15.00;;;-3.50;99.90;;;;;;5070455;28;20044;-61
2022/12/14 11:13:55;;;;;;;39.35;16.63;;;-3.40;99.90;;;;;;5067573;28;20033;-60
2022/12/14 11:16:23;;;;;;;33.97;16.10;;;-3.40;99.90;;;;;;5067437;28;20607;-61
2022/12/14 11:18:58;;;;;;;37.15;16.10;;;-3.30;99.90;;;;;;5071659;28;20090;-61
2022/12/14 11:21:37;;;;;;;37.75;16.25;;;-3.20;99.90;;;;;;5065076;28;20037;-62
2022/12/14 11:24:04;;;;;;;33.08;15.20;;;-3.20;99.90;;;;;;5063931;28;20541;-61
2022/12/14 11:26:38;;;;;;;32.00;14.52;;;-3.20;99.90;;;;;;5064734;28;20037;-61
2022/12/14 11:29:15;;;;;;;33.45;14.40;;;-3.20;99.90;;;;;;5064162;28;20083;-61
2022/12/14 11:32:03;;;;;;;31.42;15.20;;;-3.20;99.90;;;;;;5065680;28;20500;-61
2022/12/14 11:34:33;;;;;;;31.00;14.45;;;-3.10;99.90;;;;;;5067022;28;20051;-62
2022/12/14 11:37:22;;;;;;;33.47;15.32;;;-3.10;99.90;;;;;;5061497;28;20028;-61
2022/12/14 11:39:50;;;;;;;36.83;16.17;;;-3.00;99.90;;;;;;5067352;28;20044;-61
2022/12/14 11:42:18;;;;;;;31.23;15.00;;;-2.30;99.90;;;;;;5072389;28;20072;-61
2022/12/14 11:44:46;;;;;;;33.22;14.63;;;-2.90;99.90;;;;;;5068279;28;20039;-61
2022/12/14 11:47:24;;;;;;;32.78;13.80;;;-2.80;99.90;;;;;;5065930;28;20448;-60
2022/12/14 11:49:55;;;;;;;34.30;15.35;;;-2.80;99.90;;;;;;5066144;28;20033;-61
2022/12/14 11:52:39;;;;;;;34.65;14.52;;;-2.60;99.90;;;;;;5065997;28;20368;-61
2022/12/14 11:55:17;;;;;;;31.25;14.02;;;-2.60;99.90;;;;;;5064378;28;20047;-60
2022/12/14 11:57:51;;;;;;;28.55;14.20;;;-2.40;99.90;;;;;;5069101;28;20033;-61
2022/12/14 12:00:24;;;;;;;28.00;12.95;;;-2.10;99.90;;;;;;5063775;28;20032;-61
2022/12/14 12:03:07;;;;;;;26.20;12.52;;;-1.80;99.90;;;;;;5063796;28;20040;-61
2022/12/14 12:05:39;;;;;;;28.73;13.75;;;-1.60;99.90;;;;;;5067138;28;20044;-61
2022/12/14 12:08:35;;;;;;;32.90;14.55;;;-1.30;99.90;;;;;;5069427;28;20052;-61
2022/12/14 12:11:17;;;;;;;27.95;13.65;;;-1.10;99.90;;;;;;5066854;28;20482;-62
2022/12/14 12:13:46;;;;;;;30.83;14.57;;;-0.70;99.90;;;;;;5067454;28;20462;-61
2022/12/14 12:16:19;;;;;;;30.02;14.75;;;-0.60;99.90;;;;;;5075130;28;20307;-62
2022/12/14 12:19:00;;;;;;;28.73;13.35;;;-0.30;99.90;;;;;;5065530;28;20076;-61
2022/12/14 12:21:29;;;;;;;29.67;13.57;;;-0.10;99.90;;;;;;5065797;28;20044;-61
2022/12/14 12:24:17;;;;;;;29.48;12.80;;;0.30;99.90;;;;;;5062749;28;20037;-61
2022/12/14 12:26:55;;;;;;;26.10;12.27;;;0.50;99.90;;;;;;5071329;28;20036;-61
2022/12/14 12:29:33;;;;;;;28.75;13.15;;;0.90;99.90;;;;;;5065425;28;20044;-61
2022/12/14 12:32:07;;;;;;;27.02;12.15;;;1.10;99.90;;;;;;5066214;28;20051;-61
2022/12/14 12:34:59;;;;;;;31.33;11.93;;;1.40;99.90;;;;;;5070484;28;20044;-61
2022/12/14 12:37:35;;;;;;;24.42;11.35;;;1.70;99.90;;;;;;5064462;28;20040;-60
2022/12/14 12:40:30;;;;;;;28.77;14.00;;;1.70;99.90;;;;;;5060488;28;20124;-62
2022/12/14 12:43:26;;;;;;;31.48;15.23;;;1.60;99.90;;;;;;5076695;28;20482;-61
2022/12/14 12:46:12;;;;;;;37.20;17.17;;;1.80;99.90;;;;;;5069524;28;20071;-62
2022/12/14 12:48:44;;;;;;;33.90;16.27;;;2.00;99.90;;;;;;5063694;28;20044;-60
2022/12/14 12:51:22;;;;;;;39.97;17.40;;;2.10;99.90;;;;;;5070260;28;20036;-60
2022/12/14 12:53:54;;;;;;;32.90;16.85;;;2.20;99.90;;;;;;5070223;28;20402;-62
2022/12/14 12:56:56;;;;;;;34.10;16.95;;;2.40;99.90;;;;;;5067241;28;20121;-61
2022/12/14 12:59:37;;;;;;;33.70;16.02;;;2.70;99.90;;;;;;5007002;28;20117;-62
2022/12/14 13:02:28;;;;;;;34.53;16.27;;;3.00;99.90;;;;;;5064634;28;20080;-62
2022/12/14 13:04:55;;;;;;;32.08;15.43;;;3.10;99.90;;;;;;5070842;28;20040;-60
2022/12/14 13:07:21;;;;;;;31.52;16.00;;;3.20;99.90;;;;;;5070333;28;20040;-62
2022/12/14 13:09:51;;;;;;;34.00;16.58;;;3.40;99.90;;;;;;5069903;28;20112;-62